sensor_id;sensor_type;location;lat;lon;timestamp;P1;P2;P0
73146;PMS7003;61345;48.922;2.244;2023-02-11T00:00:51;67.25;50.75;33.25
73146;PMS7003;61345;48.922;2.244;2023-02-11T00:03:16;63.75;46.25;30.25
73146;PMS7003;61345;48.922;2.244;2023-02-11T00:05:41;69.50;50.50;32.00
73146;PMS7003;61345;48.922;2.244;2023-02-11T00:08:07;69.25;51.00;33.00
73146;PMS7003;61345;48.922;2.244;2023-02-11T00:10:32;74.25;48.75;32.75
73146;PMS7003;61345;48.922;2.244;2023-02-11T00:12:57;69.00;52.50;32.25
73146;PMS7003;61345;48.922;2.244;2023-02-11T00:15:23;69.25;53.25;31.50
73146;PMS7003;61345;48.922;2.244;2023-02-11T00:17:48;72.25;54.00;32.50
73146;PMS7003;61345;48.922;2.244;2023-02-11T00:20:13;62.50;48.75;32.00
73146;PMS7003;61345;48.922;2.244;2023-02-11T00:22:39;68.00;49.75;31.00
73146;PMS7003;61345;48.922;2.244;2023-02-11T00:25:04;66.00;46.50;28.75
73146;PMS7003;61345;48.922;2.244;2023-02-11T00:27:30;55.25;45.25;31.00
73146;PMS7003;61345;48.922;2.244;2023-02-11T00:29:55;63.00;48.50;31.00
73146;PMS7003;61345;48.922;2.244;2023-02-11T00:32:20;64.25;48.50;32.25
73146;PMS7003;61345;48.922;2.244;2023-02-11T00:34:46;1.00;0.00;0.00
73146;PMS7003;61345;48.922;2.244;2023-02-11T00:37:11;77.75;51.25;33.75
73146;PMS7003;61345;48.922;2.244;2023-02-11T00:39:37;77.00;54.00;33.75
73146;PMS7003;61345;48.922;2.244;2023-02-11T00:42:03;67.00;48.00;32.25
73146;PMS7003;61345;48.922;2.244;2023-02-11T00:44:28;68.50;51.00;32.25
73146;PMS7003;61345;48.922;2.244;2023-02-11T00:46:53;70.00;50.75;33.25
73146;PMS7003;61345;48.922;2.244;2023-02-11T00:49:19;69.75;53.25;33.75
73146;PMS7003;61345;48.922;2.244;2023-02-11T00:51:44;72.25;51.25;33.75
73146;PMS7003;61345;48.922;2.244;2023-02-11T00:54:09;72.50;53.25;32.25
73146;PMS7003;61345;48.922;2.244;2023-02-11T00:56:35;72.25;52.50;34.75
73146;PMS7003;61345;48.922;2.244;2023-02-11T00:59:00;74.00;55.00;32.00
73146;PMS7003;61345;48.922;2.244;2023-02-11T01:01:25;66.75;49.50;31.25
73146;PMS7003;61345;48.922;2.244;2023-02-11T01:03:51;67.75;48.75;32.25
73146;PMS7003;61345;48.922;2.244;2023-02-11T01:06:17;53.25;44.75;31.50
73146;PMS7003;61345;48.922;2.244;2023-02-11T01:08:42;63.50;48.50;31.25
73146;PMS7003;61345;48.922;2.244;2023-02-11T01:11:13;66.00;49.00;33.50
73146;PMS7003;61345;48.922;2.244;2023-02-11T01:13:40;74.00;53.00;35.25
73146;PMS7003;61345;48.922;2.244;2023-02-11T01:16:07;68.00;50.50;33.75
73146;PMS7003;61345;48.922;2.244;2023-02-11T01:18:33;75.50;51.00;32.25
73146;PMS7003;61345;48.922;2.244;2023-02-11T01:20:59;64.50;46.75;31.75
73146;PMS7003;61345;48.922;2.244;2023-02-11T01:23:24;63.75;48.50;32.75
73146;PMS7003;61345;48.922;2.244;2023-02-11T01:25:49;72.50;53.25;34.75
73146;PMS7003;61345;48.922;2.244;2023-02-11T01:28:16;68.50;48.00;31.25
73146;PMS7003;61345;48.922;2.244;2023-02-11T01:30:43;72.25;52.50;33.00
73146;PMS7003;61345;48.922;2.244;2023-02-11T01:33:08;70.00;52.75;33.00
73146;PMS7003;61345;48.922;2.244;2023-02-11T01:35:33;77.50;55.75;34.50
73146;PMS7003;61345;48.922;2.244;2023-02-11T01:37:59;76.25;50.00;32.00
73146;PMS7003;61345;48.922;2.244;2023-02-11T01:40:24;67.50;50.00;32.25
73146;PMS7003;61345;48.922;2.244;2023-02-11T01:42:49;65.50;50.50;32.25
73146;PMS7003;61345;48.922;2.244;2023-02-11T01:48:08;71.25;53.50;34.00
73146;PMS7003;61345;48.922;2.244;2023-02-11T01:50:36;74.50;57.25;35.00
73146;PMS7003;61345;48.922;2.244;2023-02-11T01:53:03;77.50;56.00;36.00
73146;PMS7003;61345;48.922;2.244;2023-02-11T01:55:48;57.75;42.50;28.00
73146;PMS7003;61345;48.922;2.244;2023-02-11T01:58:33;77.50;55.00;34.50
73146;PMS7003;61345;48.922;2.244;2023-02-11T02:01:02;75.50;56.00;34.00
73146;PMS7003;61345;48.922;2.244;2023-02-11T02:03:29;69.25;52.00;36.00
73146;PMS7003;61345;48.922;2.244;2023-02-11T02:06:06;61.00;47.50;31.25
73146;PMS7003;61345;48.922;2.244;2023-02-11T02:08:38;68.25;50.00;33.75
73146;PMS7003;61345;48.922;2.244;2023-02-11T02:11:11;67.00;51.25;32.75
73146;PMS7003;61345;48.922;2.244;2023-02-11T02:13:37;75.00;51.50;34.25
73146;PMS7003;61345;48.922;2.244;2023-02-11T02:16:04;74.25;50.00;31.25
73146;PMS7003;61345;48.922;2.244;2023-02-11T02:35:01;69.25;54.50;34.25
73146;PMS7003;61345;48.922;2.244;2023-02-11T02:37:46;68.50;52.00;33.00
73146;PMS7003;61345;48.922;2.244;2023-02-11T02:40:19;66.75;51.75;32.25
73146;PMS7003;61345;48.922;2.244;2023-02-11T02:42:48;72.00;52.75;35.25
73146;PMS7003;61345;48.922;2.244;2023-02-11T02:45:13;70.00;50.00;33.50
73146;PMS7003;61345;48.922;2.244;2023-02-11T02:47:39;72.50;52.75;35.50
73146;PMS7003;61345;48.922;2.244;2023-02-11T02:50:04;66.00;49.25;33.75
73146;PMS7003;61345;48.922;2.244;2023-02-11T02:55:13;78.00;55.00;34.25
73146;PMS7003;61345;48.922;2.244;2023-02-11T03:05:51;77.25;57.50;36.75
73146;PMS7003;61345;48.922;2.244;2023-02-11T03:08:27;68.00;52.75;33.25
73146;PMS7003;61345;48.922;2.244;2023-02-11T03:10:56;82.00;55.00;34.00
73146;PMS7003;61345;48.922;2.244;2023-02-11T03:13:25;78.25;57.25;34.25
73146;PMS7003;61345;48.922;2.244;2023-02-11T03:15:54;82.25;56.75;35.50
73146;PMS7003;61345;48.922;2.244;2023-02-11T03:18:21;77.00;51.25;32.00
73146;PMS7003;61345;48.922;2.244;2023-02-11T03:20:49;77.00;55.00;34.25
73146;PMS7003;61345;48.922;2.244;2023-02-11T03:23:30;77.50;56.75;35.25
73146;PMS7003;61345;48.922;2.244;2023-02-11T03:26:11;74.00;51.00;31.50
73146;PMS7003;61345;48.922;2.244;2023-02-11T03:28:43;79.00;57.75;37.25
73146;PMS7003;61345;48.922;2.244;2023-02-11T03:33:59;72.50;52.75;33.00
73146;PMS7003;61345;48.922;2.244;2023-02-11T03:36:36;66.00;49.75;32.75
73146;PMS7003;61345;48.922;2.244;2023-02-11T03:39:09;74.00;52.50;33.00
73146;PMS7003;61345;48.922;2.244;2023-02-11T03:41:37;32.25;21.75;7.00
73146;PMS7003;61345;48.922;2.244;2023-02-11T03:44:04;71.50;52.00;33.75
73146;PMS7003;61345;48.922;2.244;2023-02-11T03:46:32;71.75;52.50;33.00
73146;PMS7003;61345;48.922;2.244;2023-02-11T03:49:05;70.00;52.00;34.50
73146;PMS7003;61345;48.922;2.244;2023-02-11T03:51:34;71.75;50.50;33.25
73146;PMS7003;61345;48.922;2.244;2023-02-11T03:54:01;77.00;54.00;33.50
73146;PMS7003;61345;48.922;2.244;2023-02-11T03:56:29;67.25;51.00;34.50
73146;PMS7003;61345;48.922;2.244;2023-02-11T03:58:57;76.00;56.25;35.00
73146;PMS7003;61345;48.922;2.244;2023-02-11T04:01:22;80.00;55.25;34.50
73146;PMS7003;61345;48.922;2.244;2023-02-11T04:03:48;76.00;52.00;33.00
73146;PMS7003;61345;48.922;2.244;2023-02-11T04:06:13;76.25;56.00;34.25
73146;PMS7003;61345;48.922;2.244;2023-02-11T04:08:38;72.00;56.50;34.25
73146;PMS7003;61345;48.922;2.244;2023-02-11T04:11:04;67.25;50.50;33.00
73146;PMS7003;61345;48.922;2.244;2023-02-11T04:13:29;79.00;53.75;35.00
73146;PMS7003;61345;48.922;2.244;2023-02-11T04:15:54;71.00;52.25;33.75
73146;PMS7003;61345;48.922;2.244;2023-02-11T04:18:20;69.75;52.75;31.75
73146;PMS7003;61345;48.922;2.244;2023-02-11T04:20:45;69.00;51.25;33.25
73146;PMS7003;61345;48.922;2.244;2023-02-11T04:23:10;72.00;51.25;32.50
73146;PMS7003;61345;48.922;2.244;2023-02-11T04:25:36;71.50;52.00;34.75
73146;PMS7003;61345;48.922;2.244;2023-02-11T04:28:01;73.25;48.25;31.75
73146;PMS7003;61345;48.922;2.244;2023-02-11T04:30:26;74.25;49.00;26.00
73146;PMS7003;61345;48.922;2.244;2023-02-11T04:32:52;78.25;54.25;34.00
73146;PMS7003;61345;48.922;2.244;2023-02-11T04:35:18;71.00;52.50;36.50
73146;PMS7003;61345;48.922;2.244;2023-02-11T04:37:44;71.25;50.50;30.75
73146;PMS7003;61345;48.922;2.244;2023-02-11T04:40:09;73.00;52.25;33.50
73146;PMS7003;61345;48.922;2.244;2023-02-11T04:42:35;79.00;53.75;34.50
73146;PMS7003;61345;48.922;2.244;2023-02-11T04:45:00;71.25;52.25;35.00
73146;PMS7003;61345;48.922;2.244;2023-02-11T04:47:25;68.25;54.25;35.25
73146;PMS7003;61345;48.922;2.244;2023-02-11T04:49:51;63.25;43.25;28.25
73146;PMS7003;61345;48.922;2.244;2023-02-11T04:52:16;72.50;51.50;32.75
73146;PMS7003;61345;48.922;2.244;2023-02-11T04:54:41;69.25;49.00;32.75
73146;PMS7003;61345;48.922;2.244;2023-02-11T04:57:07;63.50;46.50;32.00
73146;PMS7003;61345;48.922;2.244;2023-02-11T04:59:32;66.25;49.50;33.00
73146;PMS7003;61345;48.922;2.244;2023-02-11T05:01:57;53.25;42.00;22.75
73146;PMS7003;61345;48.922;2.244;2023-02-11T05:04:23;66.00;48.00;32.75
73146;PMS7003;61345;48.922;2.244;2023-02-11T05:06:48;67.75;49.00;32.00
73146;PMS7003;61345;48.922;2.244;2023-02-11T05:09:14;66.75;49.75;32.00
73146;PMS7003;61345;48.922;2.244;2023-02-11T05:11:39;72.75;53.00;32.50
73146;PMS7003;61345;48.922;2.244;2023-02-11T05:14:05;71.25;53.50;32.00
73146;PMS7003;61345;48.922;2.244;2023-02-11T05:16:30;71.25;54.25;33.25
73146;PMS7003;61345;48.922;2.244;2023-02-11T05:18:56;68.75;51.50;32.50
73146;PMS7003;61345;48.922;2.244;2023-02-11T05:21:22;71.00;51.25;34.00
73146;PMS7003;61345;48.922;2.244;2023-02-11T05:23:47;64.25;47.50;34.00
73146;PMS7003;61345;48.922;2.244;2023-02-11T05:26:13;72.25;47.75;32.00
73146;PMS7003;61345;48.922;2.244;2023-02-11T05:28:39;68.25;53.25;33.50
73146;PMS7003;61345;48.922;2.244;2023-02-11T05:31:04;72.25;55.25;33.25
73146;PMS7003;61345;48.922;2.244;2023-02-11T05:33:30;73.00;54.00;33.25
73146;PMS7003;61345;48.922;2.244;2023-02-11T05:35:59;65.00;49.00;33.00
73146;PMS7003;61345;48.922;2.244;2023-02-11T05:38:26;70.00;53.50;33.00
73146;PMS7003;61345;48.922;2.244;2023-02-11T05:40:51;69.25;50.75;33.25
73146;PMS7003;61345;48.922;2.244;2023-02-11T05:43:16;69.50;48.00;31.75
73146;PMS7003;61345;48.922;2.244;2023-02-11T05:45:42;64.25;49.00;33.50
73146;PMS7003;61345;48.922;2.244;2023-02-11T05:48:07;71.50;52.25;32.00
73146;PMS7003;61345;48.922;2.244;2023-02-11T05:50:32;65.00;48.25;30.50
73146;PMS7003;61345;48.922;2.244;2023-02-11T05:52:58;72.50;49.50;30.25
73146;PMS7003;61345;48.922;2.244;2023-02-11T05:55:23;64.50;46.25;31.00
73146;PMS7003;61345;48.922;2.244;2023-02-11T05:57:48;58.75;45.00;33.75
73146;PMS7003;61345;48.922;2.244;2023-02-11T06:00:14;70.00;47.25;31.00
73146;PMS7003;61345;48.922;2.244;2023-02-11T06:02:39;62.75;49.25;31.50
73146;PMS7003;61345;48.922;2.244;2023-02-11T06:05:05;71.00;49.25;32.50
73146;PMS7003;61345;48.922;2.244;2023-02-11T06:07:31;73.50;51.00;32.50
73146;PMS7003;61345;48.922;2.244;2023-02-11T06:09:56;65.25;47.25;32.25
73146;PMS7003;61345;48.922;2.244;2023-02-11T06:12:21;63.25;49.50;31.00
73146;PMS7003;61345;48.922;2.244;2023-02-11T06:14:47;69.75;53.00;33.50
73146;PMS7003;61345;48.922;2.244;2023-02-11T06:17:12;74.75;51.50;34.00
73146;PMS7003;61345;48.922;2.244;2023-02-11T06:19:38;72.25;53.25;34.00
73146;PMS7003;61345;48.922;2.244;2023-02-11T06:22:03;64.25;49.50;31.25
73146;PMS7003;61345;48.922;2.244;2023-02-11T06:24:28;74.50;52.75;34.00
73146;PMS7003;61345;48.922;2.244;2023-02-11T06:26:54;67.50;53.00;33.75
73146;PMS7003;61345;48.922;2.244;2023-02-11T06:29:19;64.00;46.50;31.50
73146;PMS7003;61345;48.922;2.244;2023-02-11T06:31:44;79.00;53.00;34.50
73146;PMS7003;61345;48.922;2.244;2023-02-11T06:34:10;65.00;48.75;32.00
73146;PMS7003;61345;48.922;2.244;2023-02-11T06:36:37;72.50;51.00;34.00
73146;PMS7003;61345;48.922;2.244;2023-02-11T06:39:03;71.00;49.50;33.25
73146;PMS7003;61345;48.922;2.244;2023-02-11T06:41:29;67.75;49.25;31.00
73146;PMS7003;61345;48.922;2.244;2023-02-11T06:43:54;67.00;52.25;33.75
73146;PMS7003;61345;48.922;2.244;2023-02-11T06:46:19;75.00;58.00;33.75
73146;PMS7003;61345;48.922;2.244;2023-02-11T06:48:44;70.25;53.00;32.00
73146;PMS7003;61345;48.922;2.244;2023-02-11T06:51:10;75.75;51.50;33.00
73146;PMS7003;61345;48.922;2.244;2023-02-11T06:53:38;70.25;53.50;33.25
73146;PMS7003;61345;48.922;2.244;2023-02-11T06:56:20;68.50;48.50;31.25
73146;PMS7003;61345;48.922;2.244;2023-02-11T06:58:46;73.25;52.00;34.00
73146;PMS7003;61345;48.922;2.244;2023-02-11T07:01:13;65.00;52.75;34.00
73146;PMS7003;61345;48.922;2.244;2023-02-11T07:03:41;67.75;44.75;25.50
73146;PMS7003;61345;48.922;2.244;2023-02-11T07:06:09;69.25;50.50;32.25
73146;PMS7003;61345;48.922;2.244;2023-02-11T07:08:36;66.50;46.75;32.25
73146;PMS7003;61345;48.922;2.244;2023-02-11T07:11:15;75.50;54.00;33.75
73146;PMS7003;61345;48.922;2.244;2023-02-11T07:13:43;71.75;52.25;34.25
73146;PMS7003;61345;48.922;2.244;2023-02-11T07:16:09;73.75;51.50;33.50
73146;PMS7003;61345;48.922;2.244;2023-02-11T07:18:36;72.75;52.00;34.00
73146;PMS7003;61345;48.922;2.244;2023-02-11T07:21:05;63.50;51.25;36.00
73146;PMS7003;61345;48.922;2.244;2023-02-11T07:23:32;70.00;52.00;34.00
73146;PMS7003;61345;48.922;2.244;2023-02-11T07:25:57;71.75;50.75;33.00
73146;PMS7003;61345;48.922;2.244;2023-02-11T07:28:26;74.00;53.00;33.00
73146;PMS7003;61345;48.922;2.244;2023-02-11T07:30:51;78.75;53.75;34.25
73146;PMS7003;61345;48.922;2.244;2023-02-11T07:33:16;76.75;51.50;33.75
73146;PMS7003;61345;48.922;2.244;2023-02-11T07:35:42;81.00;54.25;34.00
73146;PMS7003;61345;48.922;2.244;2023-02-11T07:38:07;77.00;57.50;34.50
73146;PMS7003;61345;48.922;2.244;2023-02-11T07:40:32;72.75;53.75;34.00
73146;PMS7003;61345;48.922;2.244;2023-02-11T07:42:59;75.00;54.50;34.75
73146;PMS7003;61345;48.922;2.244;2023-02-11T07:45:25;76.50;56.25;34.50
73146;PMS7003;61345;48.922;2.244;2023-02-11T07:47:50;72.75;51.50;33.00
73146;PMS7003;61345;48.922;2.244;2023-02-11T07:50:16;70.75;51.25;33.25
73146;PMS7003;61345;48.922;2.244;2023-02-11T07:52:41;75.50;53.50;34.25
73146;PMS7003;61345;48.922;2.244;2023-02-11T07:55:07;75.75;53.50;32.50
73146;PMS7003;61345;48.922;2.244;2023-02-11T07:57:33;74.00;57.00;36.00
73146;PMS7003;61345;48.922;2.244;2023-02-11T07:59:59;72.75;52.75;34.50
73146;PMS7003;61345;48.922;2.244;2023-02-11T08:02:24;77.00;56.25;36.50
73146;PMS7003;61345;48.922;2.244;2023-02-11T08:04:50;74.00;56.25;34.25
73146;PMS7003;61345;48.922;2.244;2023-02-11T08:07:15;79.00;52.50;34.50
73146;PMS7003;61345;48.922;2.244;2023-02-11T08:09:41;77.00;53.75;34.00
73146;PMS7003;61345;48.922;2.244;2023-02-11T08:12:07;71.75;51.50;34.50
73146;PMS7003;61345;48.922;2.244;2023-02-11T08:14:32;76.25;56.50;38.25
73146;PMS7003;61345;48.922;2.244;2023-02-11T08:16:57;79.00;59.25;37.00
73146;PMS7003;61345;48.922;2.244;2023-02-11T08:19:23;81.25;60.50;38.75
73146;PMS7003;61345;48.922;2.244;2023-02-11T08:21:48;83.00;58.50;38.00
73146;PMS7003;61345;48.922;2.244;2023-02-11T08:24:13;77.75;54.50;34.75
73146;PMS7003;61345;48.922;2.244;2023-02-11T08:26:39;78.75;57.25;35.25
73146;PMS7003;61345;48.922;2.244;2023-02-11T08:29:06;67.50;55.75;34.75
73146;PMS7003;61345;48.922;2.244;2023-02-11T08:31:34;69.50;49.50;29.50
73146;PMS7003;61345;48.922;2.244;2023-02-11T08:34:01;75.75;52.25;34.00
73146;PMS7003;61345;48.922;2.244;2023-02-11T08:36:27;61.50;50.25;33.75
73146;PMS7003;61345;48.922;2.244;2023-02-11T08:38:55;74.50;56.25;34.00
73146;PMS7003;61345;48.922;2.244;2023-02-11T08:41:21;56.25;49.75;33.00
73146;PMS7003;61345;48.922;2.244;2023-02-11T08:43:47;71.75;51.75;34.00
73146;PMS7003;61345;48.922;2.244;2023-02-11T08:46:14;70.50;50.50;33.00
73146;PMS7003;61345;48.922;2.244;2023-02-11T08:48:41;69.50;50.75;33.00
73146;PMS7003;61345;48.922;2.244;2023-02-11T08:51:07;69.50;52.75;35.00
73146;PMS7003;61345;48.922;2.244;2023-02-11T08:53:34;68.75;51.25;33.00
73146;PMS7003;61345;48.922;2.244;2023-02-11T08:56:00;76.25;55.00;34.00
73146;PMS7003;61345;48.922;2.244;2023-02-11T08:58:25;74.00;50.75;32.25
73146;PMS7003;61345;48.922;2.244;2023-02-11T09:00:50;68.75;50.75;32.00
73146;PMS7003;61345;48.922;2.244;2023-02-11T09:03:16;70.25;50.75;31.25
73146;PMS7003;61345;48.922;2.244;2023-02-11T09:05:42;73.75;50.00;31.00
73146;PMS7003;61345;48.922;2.244;2023-02-11T09:08:08;61.50;47.00;32.00
73146;PMS7003;61345;48.922;2.244;2023-02-11T09:10:34;62.25;45.25;28.00
73146;PMS7003;61345;48.922;2.244;2023-02-11T09:13:00;63.00;49.75;32.00
73146;PMS7003;61345;48.922;2.244;2023-02-11T09:15:25;45.00;39.25;29.25
73146;PMS7003;61345;48.922;2.244;2023-02-11T09:17:50;78.25;54.75;35.25
73146;PMS7003;61345;48.922;2.244;2023-02-11T09:20:16;69.00;50.25;33.25
73146;PMS7003;61345;48.922;2.244;2023-02-11T09:22:41;79.25;57.25;37.50
73146;PMS7003;61345;48.922;2.244;2023-02-11T09:25:06;70.75;55.25;36.00
73146;PMS7003;61345;48.922;2.244;2023-02-11T09:27:32;70.00;49.00;30.25
73146;PMS7003;61345;48.922;2.244;2023-02-11T09:29:57;67.00;47.00;31.50
73146;PMS7003;61345;48.922;2.244;2023-02-11T09:32:22;63.25;48.25;30.50
73146;PMS7003;61345;48.922;2.244;2023-02-11T09:34:48;64.75;45.75;30.75
73146;PMS7003;61345;48.922;2.244;2023-02-11T09:37:13;66.00;49.50;32.75
73146;PMS7003;61345;48.922;2.244;2023-02-11T09:39:38;73.50;50.00;31.25
73146;PMS7003;61345;48.922;2.244;2023-02-11T09:42:29;66.25;49.25;32.00
73146;PMS7003;61345;48.922;2.244;2023-02-11T09:45:04;53.00;45.75;26.75
73146;PMS7003;61345;48.922;2.244;2023-02-11T09:47:34;61.50;46.00;31.75
73146;PMS7003;61345;48.922;2.244;2023-02-11T09:50:09;60.25;47.00;31.00
73146;PMS7003;61345;48.922;2.244;2023-02-11T09:52:39;62.75;48.75;30.75
73146;PMS7003;61345;48.922;2.244;2023-02-11T09:55:16;64.75;44.75;30.00
73146;PMS7003;61345;48.922;2.244;2023-02-11T09:57:44;60.50;42.75;30.00
73146;PMS7003;61345;48.922;2.244;2023-02-11T10:00:44;68.00;46.25;29.75
73146;PMS7003;61345;48.922;2.244;2023-02-11T10:05:47;53.25;41.00;27.75
73146;PMS7003;61345;48.922;2.244;2023-02-11T10:11:15;52.75;42.00;28.00
73146;PMS7003;61345;48.922;2.244;2023-02-11T10:17:20;61.00;39.50;27.75
73146;PMS7003;61345;48.922;2.244;2023-02-11T10:25:26;62.75;46.00;29.00
73146;PMS7003;61345;48.922;2.244;2023-02-11T10:28:18;54.25;43.50;29.25
73146;PMS7003;61345;48.922;2.244;2023-02-11T10:36:48;57.50;41.25;26.25
73146;PMS7003;61345;48.922;2.244;2023-02-11T10:39:16;58.75;42.75;29.25
73146;PMS7003;61345;48.922;2.244;2023-02-11T10:41:48;55.25;42.75;27.75
73146;PMS7003;61345;48.922;2.244;2023-02-11T10:44:25;45.75;39.25;26.25
73146;PMS7003;61345;48.922;2.244;2023-02-11T10:46:56;54.50;41.75;28.00
73146;PMS7003;61345;48.922;2.244;2023-02-11T10:49:37;59.00;42.50;28.50
73146;PMS7003;61345;48.922;2.244;2023-02-11T10:54:50;49.50;37.75;20.25
73146;PMS7003;61345;48.922;2.244;2023-02-11T10:57:22;63.50;43.25;28.00
73146;PMS7003;61345;48.922;2.244;2023-02-11T10:59:55;53.50;38.00;24.50
73146;PMS7003;61345;48.922;2.244;2023-02-11T11:02:24;52.25;40.50;28.25
73146;PMS7003;61345;48.922;2.244;2023-02-11T11:04:58;48.00;37.50;20.50
73146;PMS7003;61345;48.922;2.244;2023-02-11T11:07:28;58.50;45.25;30.00
73146;PMS7003;61345;48.922;2.244;2023-02-11T11:12:46;61.25;48.25;30.25
73146;PMS7003;61345;48.922;2.244;2023-02-11T11:15:14;58.25;42.75;30.00
73146;PMS7003;61345;48.922;2.244;2023-02-11T11:17:45;57.00;45.25;30.00
73146;PMS7003;61345;48.922;2.244;2023-02-11T11:22:40;58.50;45.00;29.00
73146;PMS7003;61345;48.922;2.244;2023-02-11T11:28:05;68.00;45.25;30.00
73146;PMS7003;61345;48.922;2.244;2023-02-11T11:30:43;62.50;45.00;30.00
73146;PMS7003;61345;48.922;2.244;2023-02-11T11:33:50;62.00;43.50;27.00
73146;PMS7003;61345;48.922;2.244;2023-02-11T11:36:01;59.00;44.75;28.00
73146;PMS7003;61345;48.922;2.244;2023-02-11T11:38:29;52.75;42.25;28.25
73146;PMS7003;61345;48.922;2.244;2023-02-11T11:43:39;52.00;42.25;27.75
73146;PMS7003;61345;48.922;2.244;2023-02-11T11:46:21;61.00;43.75;28.00
73146;PMS7003;61345;48.922;2.244;2023-02-11T11:48:48;51.75;41.50;28.00
73146;PMS7003;61345;48.922;2.244;2023-02-11T11:51:15;47.50;37.00;24.25
73146;PMS7003;61345;48.922;2.244;2023-02-11T11:53:50;26.00;21.75;14.50
73146;PMS7003;61345;48.922;2.244;2023-02-11T11:56:26;29.75;24.25;16.75
73146;PMS7003;61345;48.922;2.244;2023-02-11T11:58:54;31.00;24.00;17.25
73146;PMS7003;61345;48.922;2.244;2023-02-11T12:04:19;39.00;31.25;22.50
73146;PMS7003;61345;48.922;2.244;2023-02-11T12:06:56;34.75;30.25;20.50
73146;PMS7003;61345;48.922;2.244;2023-02-11T12:12:19;37.00;31.75;21.00
73146;PMS7003;61345;48.922;2.244;2023-02-11T12:20:54;25.50;23.25;16.00
73146;PMS7003;61345;48.922;2.244;2023-02-11T12:26:20;31.75;20.50;15.25
73146;PMS7003;61345;48.922;2.244;2023-02-11T12:44:55;22.00;14.00;10.00
73146;PMS7003;61345;48.922;2.244;2023-02-11T12:47:27;24.00;18.25;12.25
73146;PMS7003;61345;48.922;2.244;2023-02-11T12:50:03;24.00;19.50;14.25
73146;PMS7003;61345;48.922;2.244;2023-02-11T12:52:48;20.50;18.00;12.00
73146;PMS7003;61345;48.922;2.244;2023-02-11T12:55:24;18.25;15.00;11.00
73146;PMS7003;61345;48.922;2.244;2023-02-11T12:57:51;15.75;13.50;10.25
73146;PMS7003;61345;48.922;2.244;2023-02-11T13:00:22;13.25;11.25;8.25
73146;PMS7003;61345;48.922;2.244;2023-02-11T13:03:06;15.50;9.00;7.00
73146;PMS7003;61345;48.922;2.244;2023-02-11T13:08:14;18.75;16.00;9.25
73146;PMS7003;61345;48.922;2.244;2023-02-11T13:10:42;15.50;13.25;9.25
73146;PMS7003;61345;48.922;2.244;2023-02-11T13:13:18;18.50;13.50;8.00
73146;PMS7003;61345;48.922;2.244;2023-02-11T13:15:53;11.50;9.25;7.00
73146;PMS7003;61345;48.922;2.244;2023-02-11T13:26:15;12.00;11.25;8.50
73146;PMS7003;61345;48.922;2.244;2023-02-11T13:31:17;20.00;15.00;11.00
73146;PMS7003;61345;48.922;2.244;2023-02-11T13:33:44;18.00;12.50;9.75
73146;PMS7003;61345;48.922;2.244;2023-02-11T13:36:16;15.25;14.00;10.00
73146;PMS7003;61345;48.922;2.244;2023-02-11T13:38:53;17.50;11.50;9.00
73146;PMS7003;61345;48.922;2.244;2023-02-11T13:41:23;22.00;15.50;11.00
73146;PMS7003;61345;48.922;2.244;2023-02-11T13:44:03;24.00;19.00;13.00
73146;PMS7003;61345;48.922;2.244;2023-02-11T13:49:33;12.50;10.75;7.00
73146;PMS7003;61345;48.922;2.244;2023-02-11T13:52:02;12.25;11.25;7.50
73146;PMS7003;61345;48.922;2.244;2023-02-11T13:54:34;11.50;9.00;6.75
73146;PMS7003;61345;48.922;2.244;2023-02-11T13:59:55;10.75;8.00;6.75
73146;PMS7003;61345;48.922;2.244;2023-02-11T14:02:30;12.50;10.50;7.00
73146;PMS7003;61345;48.922;2.244;2023-02-11T14:10:56;12.50;10.75;7.50
73146;PMS7003;61345;48.922;2.244;2023-02-11T14:26:54;14.00;11.00;8.00
73146;PMS7003;61345;48.922;2.244;2023-02-11T14:34:50;9.00;8.00;6.50
73146;PMS7003;61345;48.922;2.244;2023-02-11T14:37:28;14.00;11.00;7.25
73146;PMS7003;61345;48.922;2.244;2023-02-11T14:43:03;11.50;10.50;8.00
73146;PMS7003;61345;48.922;2.244;2023-02-11T14:45:36;12.50;10.00;7.25
73146;PMS7003;61345;48.922;2.244;2023-02-11T14:48:02;18.50;13.00;8.00
73146;PMS7003;61345;48.922;2.244;2023-02-11T14:53:14;12.75;10.00;7.50
73146;PMS7003;61345;48.922;2.244;2023-02-11T14:55:41;14.25;13.25;10.00
73146;PMS7003;61345;48.922;2.244;2023-02-11T14:58:20;12.50;11.25;8.00
73146;PMS7003;61345;48.922;2.244;2023-02-11T15:00:49;14.50;12.25;8.00
73146;PMS7003;61345;48.922;2.244;2023-02-11T15:03:32;15.00;12.00;7.50
73146;PMS7003;61345;48.922;2.244;2023-02-11T15:08:26;21.75;14.75;10.75
73146;PMS7003;61345;48.922;2.244;2023-02-11T15:10:52;12.25;12.00;8.25
73146;PMS7003;61345;48.922;2.244;2023-02-11T15:13:19;15.50;13.50;10.00
73146;PMS7003;61345;48.922;2.244;2023-02-11T15:15:51;17.50;12.25;9.00
73146;PMS7003;61345;48.922;2.244;2023-02-11T15:18:20;24.25;18.50;11.50
73146;PMS7003;61345;48.922;2.244;2023-02-11T15:20:48;19.25;12.75;7.75
73146;PMS7003;61345;48.922;2.244;2023-02-11T15:23:19;18.25;14.25;10.75
73146;PMS7003;61345;48.922;2.244;2023-02-11T15:25:47;17.75;16.00;11.50
73146;PMS7003;61345;48.922;2.244;2023-02-11T15:28:30;18.00;15.75;10.75
73146;PMS7003;61345;48.922;2.244;2023-02-11T15:33:25;23.25;15.75;12.00
73146;PMS7003;61345;48.922;2.244;2023-02-11T15:35:53;27.00;21.25;13.00
73146;PMS7003;61345;48.922;2.244;2023-02-11T15:38:19;20.25;19.75;13.00
73146;PMS7003;61345;48.922;2.244;2023-02-11T15:41:00;21.25;15.00;9.75
73146;PMS7003;61345;48.922;2.244;2023-02-11T15:43:40;20.00;15.75;12.00
73146;PMS7003;61345;48.922;2.244;2023-02-11T15:46:06;28.25;19.50;14.75
73146;PMS7003;61345;48.922;2.244;2023-02-11T15:48:44;17.00;15.50;12.00
73146;PMS7003;61345;48.922;2.244;2023-02-11T15:51:19;20.25;15.50;10.50
73146;PMS7003;61345;48.922;2.244;2023-02-11T15:53:53;26.00;17.00;11.75
73146;PMS7003;61345;48.922;2.244;2023-02-11T15:58:53;22.50;15.75;10.50
73146;PMS7003;61345;48.922;2.244;2023-02-11T16:01:30;21.50;16.00;10.25
73146;PMS7003;61345;48.922;2.244;2023-02-11T16:03:57;27.50;18.50;13.00
73146;PMS7003;61345;48.922;2.244;2023-02-11T16:06:26;20.75;12.25;11.25
73146;PMS7003;61345;48.922;2.244;2023-02-11T16:09:02;15.50;15.25;11.25
73146;PMS7003;61345;48.922;2.244;2023-02-11T16:16:52;20.00;16.25;10.75
73146;PMS7003;61345;48.922;2.244;2023-02-11T16:19:20;22.25;16.00;11.00
73146;PMS7003;61345;48.922;2.244;2023-02-11T16:21:47;21.00;15.00;10.25
73146;PMS7003;61345;48.922;2.244;2023-02-11T16:24:20;15.50;12.25;9.50
73146;PMS7003;61345;48.922;2.244;2023-02-11T16:26:49;11.25;7.00;6.00
73146;PMS7003;61345;48.922;2.244;2023-02-11T16:29:17;12.25;10.00;7.00
73146;PMS7003;61345;48.922;2.244;2023-02-11T16:31:47;10.00;7.00;6.00
73146;PMS7003;61345;48.922;2.244;2023-02-11T16:34:21;10.75;9.25;6.50